Terminal Aerodrome Forecast
Issued by NWS Sterling, VA

Home | Current Version | Previous Version | Text Only | Print | Product List | Glossary On
Versions: 1 2 3 4 5 6 7 8 9 10 11 12 13 14 15 16 17 18 19 20
000
FTUS41 KLWX 161737
TAFCHO
TAF
KCHO 161737Z 1618/1718 20005KT 5SM BR OVC005
     FM170600 20004KT 2SM BR OVC010
     FM170900 VRB03KT 1SM BR BKN010
     FM171200 20004KT 2SM -SHRA BR OVC005
     FM171500 19005KT 3SM -SHRA BR OVC010=

USA.gov is the U.S. government's official web portal to all federal, state and local government web resources and services.